sensor_id;sensor_type;location;lat;lon;timestamp;temperature;humidity
46356;DHT22;32066;49.474;11.106;2023-08-21T00:00:11;28.00;93.10
46356;DHT22;32066;49.474;11.106;2023-08-21T00:02:40;28.00;93.20
46356;DHT22;32066;49.474;11.106;2023-08-21T00:05:09;27.90;93.10
46356;DHT22;32066;49.474;11.106;2023-08-21T00:07:38;27.90;93.20
46356;DHT22;32066;49.474;11.106;2023-08-21T00:10:08;27.80;93.10
46356;DHT22;32066;49.474;11.106;2023-08-21T00:12:42;27.90;93.20
46356;DHT22;32066;49.474;11.106;2023-08-21T00:15:10;27.90;93.10
46356;DHT22;32066;49.474;11.106;2023-08-21T00:17:39;27.90;93.20
46356;DHT22;32066;49.474;11.106;2023-08-21T00:20:09;27.80;93.30
46356;DHT22;32066;49.474;11.106;2023-08-21T00:22:38;27.80;93.30
46356;DHT22;32066;49.474;11.106;2023-08-21T00:25:07;27.70;93.50
46356;DHT22;32066;49.474;11.106;2023-08-21T00:27:36;27.70;93.30
46356;DHT22;32066;49.474;11.106;2023-08-21T00:30:09;27.70;93.30
46356;DHT22;32066;49.474;11.106;2023-08-21T00:32:41;27.60;93.40
46356;DHT22;32066;49.474;11.106;2023-08-21T00:35:10;27.60;93.30
46356;DHT22;32066;49.474;11.106;2023-08-21T00:37:39;27.60;93.40
46356;DHT22;32066;49.474;11.106;2023-08-21T00:40:09;27.50;93.50
46356;DHT22;32066;49.474;11.106;2023-08-21T00:42:37;27.50;93.40
46356;DHT22;32066;49.474;11.106;2023-08-21T00:45:09;27.50;93.50
46356;DHT22;32066;49.474;11.106;2023-08-21T00:47:38;27.40;93.40
46356;DHT22;32066;49.474;11.106;2023-08-21T00:50:07;27.40;93.70
46356;DHT22;32066;49.474;11.106;2023-08-21T00:52:38;27.40;93.90
46356;DHT22;32066;49.474;11.106;2023-08-21T00:55:08;27.40;93.70
46356;DHT22;32066;49.474;11.106;2023-08-21T00:57:38;27.40;93.80
46356;DHT22;32066;49.474;11.106;2023-08-21T01:00:10;27.50;93.80
46356;DHT22;32066;49.474;11.106;2023-08-21T01:02:39;27.40;93.70
46356;DHT22;32066;49.474;11.106;2023-08-21T01:05:08;27.30;94.00
46356;DHT22;32066;49.474;11.106;2023-08-21T01:07:44;27.20;94.00
46356;DHT22;32066;49.474;11.106;2023-08-21T01:10:22;27.20;94.10
46356;DHT22;32066;49.474;11.106;2023-08-21T01:13:01;27.20;94.20
46356;DHT22;32066;49.474;11.106;2023-08-21T01:15:36;27.20;94.30
46356;DHT22;32066;49.474;11.106;2023-08-21T01:18:06;27.30;94.30
46356;DHT22;32066;49.474;11.106;2023-08-21T01:20:35;27.20;94.30
46356;DHT22;32066;49.474;11.106;2023-08-21T01:23:05;26.90;94.80
46356;DHT22;32066;49.474;11.106;2023-08-21T01:25:36;26.40;95.70
46356;DHT22;32066;49.474;11.106;2023-08-21T01:28:05;26.40;96.00
46356;DHT22;32066;49.474;11.106;2023-08-21T01:30:35;26.30;96.30
46356;DHT22;32066;49.474;11.106;2023-08-21T01:33:08;26.40;96.70
46356;DHT22;32066;49.474;11.106;2023-08-21T01:35:39;26.50;97.10
46356;DHT22;32066;49.474;11.106;2023-08-21T01:38:08;26.70;97.30
46356;DHT22;32066;49.474;11.106;2023-08-21T01:40:40;26.70;97.80
46356;DHT22;32066;49.474;11.106;2023-08-21T01:43:10;26.70;97.70
46356;DHT22;32066;49.474;11.106;2023-08-21T01:45:39;26.60;98.10
46356;DHT22;32066;49.474;11.106;2023-08-21T01:48:07;26.70;98.20
46356;DHT22;32066;49.474;11.106;2023-08-21T01:50:36;26.70;98.30
46356;DHT22;32066;49.474;11.106;2023-08-21T01:53:05;26.70;98.70
46356;DHT22;32066;49.474;11.106;2023-08-21T01:55:33;26.60;98.50
46356;DHT22;32066;49.474;11.106;2023-08-21T01:58:05;26.60;98.30
46356;DHT22;32066;49.474;11.106;2023-08-21T02:00:33;26.60;98.60
46356;DHT22;32066;49.474;11.106;2023-08-21T02:03:02;26.60;98.60
46356;DHT22;32066;49.474;11.106;2023-08-21T02:05:36;26.70;98.80
46356;DHT22;32066;49.474;11.106;2023-08-21T02:08:05;26.70;98.70
46356;DHT22;32066;49.474;11.106;2023-08-21T02:10:34;26.70;98.60
46356;DHT22;32066;49.474;11.106;2023-08-21T02:13:06;26.70;98.70
46356;DHT22;32066;49.474;11.106;2023-08-21T02:15:34;26.70;98.90
46356;DHT22;32066;49.474;11.106;2023-08-21T02:18:03;26.60;98.90
46356;DHT22;32066;49.474;11.106;2023-08-21T02:20:32;26.60;99.10
46356;DHT22;32066;49.474;11.106;2023-08-21T02:23:01;26.50;99.10
46356;DHT22;32066;49.474;11.106;2023-08-21T02:25:30;26.50;99.30
46356;DHT22;32066;49.474;11.106;2023-08-21T02:27:58;26.60;99.20
46356;DHT22;32066;49.474;11.106;2023-08-21T02:30:30;26.60;98.90
46356;DHT22;32066;49.474;11.106;2023-08-21T02:32:59;26.60;99.00
46356;DHT22;32066;49.474;11.106;2023-08-21T02:35:27;26.60;99.00
46356;DHT22;32066;49.474;11.106;2023-08-21T02:37:56;26.50;99.20
46356;DHT22;32066;49.474;11.106;2023-08-21T02:40:25;26.60;99.20
46356;DHT22;32066;49.474;11.106;2023-08-21T02:42:54;26.60;99.20
46356;DHT22;32066;49.474;11.106;2023-08-21T02:45:22;26.60;98.90
46356;DHT22;32066;49.474;11.106;2023-08-21T02:47:54;26.60;99.00
46356;DHT22;32066;49.474;11.106;2023-08-21T02:50:22;26.60;98.90
46356;DHT22;32066;49.474;11.106;2023-08-21T02:52:51;26.60;99.00
46356;DHT22;32066;49.474;11.106;2023-08-21T02:55:19;26.60;99.00
46356;DHT22;32066;49.474;11.106;2023-08-21T02:57:48;26.40;99.00
46356;DHT22;32066;49.474;11.106;2023-08-21T03:00:17;26.40;99.30
46356;DHT22;32066;49.474;11.106;2023-08-21T03:02:46;26.40;99.50
46356;DHT22;32066;49.474;11.106;2023-08-21T03:05:18;26.30;99.40
46356;DHT22;32066;49.474;11.106;2023-08-21T03:07:47;26.30;99.50
46356;DHT22;32066;49.474;11.106;2023-08-21T03:10:15;26.30;99.50
46356;DHT22;32066;49.474;11.106;2023-08-21T03:12:44;26.30;99.80
46356;DHT22;32066;49.474;11.106;2023-08-21T03:15:13;26.30;99.70
46356;DHT22;32066;49.474;11.106;2023-08-21T03:17:41;26.30;99.80
46356;DHT22;32066;49.474;11.106;2023-08-21T03:20:11;26.30;99.90
46356;DHT22;32066;49.474;11.106;2023-08-21T03:22:42;26.20;99.90
46356;DHT22;32066;49.474;11.106;2023-08-21T03:25:11;26.30;99.90
46356;DHT22;32066;49.474;11.106;2023-08-21T03:27:39;26.30;99.90
46356;DHT22;32066;49.474;11.106;2023-08-21T03:30:10;26.30;99.90
46356;DHT22;32066;49.474;11.106;2023-08-21T03:32:40;26.30;99.90
46356;DHT22;32066;49.474;11.106;2023-08-21T03:35:10;26.30;99.90
46356;DHT22;32066;49.474;11.106;2023-08-21T03:37:38;26.30;99.90
46356;DHT22;32066;49.474;11.106;2023-08-21T03:40:14;26.30;99.90
46356;DHT22;32066;49.474;11.106;2023-08-21T03:42:43;26.30;99.90
46356;DHT22;32066;49.474;11.106;2023-08-21T03:45:11;26.20;99.90
46356;DHT22;32066;49.474;11.106;2023-08-21T03:47:40;26.20;99.90
46356;DHT22;32066;49.474;11.106;2023-08-21T03:50:16;26.20;99.90
46356;DHT22;32066;49.474;11.106;2023-08-21T03:52:44;26.10;99.90
46356;DHT22;32066;49.474;11.106;2023-08-21T03:55:16;26.00;99.90
46356;DHT22;32066;49.474;11.106;2023-08-21T03:57:44;26.00;99.90
46356;DHT22;32066;49.474;11.106;2023-08-21T04:00:14;26.10;99.90
46356;DHT22;32066;49.474;11.106;2023-08-21T04:02:43;26.00;99.90
46356;DHT22;32066;49.474;11.106;2023-08-21T04:05:11;26.10;99.90
46356;DHT22;32066;49.474;11.106;2023-08-21T04:07:40;26.00;99.90
46356;DHT22;32066;49.474;11.106;2023-08-21T04:10:09;26.00;99.90
46356;DHT22;32066;49.474;11.106;2023-08-21T04:12:40;26.00;99.90
46356;DHT22;32066;49.474;11.106;2023-08-21T04:15:10;26.00;99.90
46356;DHT22;32066;49.474;11.106;2023-08-21T04:17:39;26.00;99.90
46356;DHT22;32066;49.474;11.106;2023-08-21T04:20:08;25.90;99.90
46356;DHT22;32066;49.474;11.106;2023-08-21T04:22:37;25.90;99.90
46356;DHT22;32066;49.474;11.106;2023-08-21T04:25:06;25.90;99.90
46356;DHT22;32066;49.474;11.106;2023-08-21T04:27:35;26.00;99.90
46356;DHT22;32066;49.474;11.106;2023-08-21T04:30:08;25.90;99.90
46356;DHT22;32066;49.474;11.106;2023-08-21T04:32:37;26.00;99.90
46356;DHT22;32066;49.474;11.106;2023-08-21T04:35:07;25.90;99.90
46356;DHT22;32066;49.474;11.106;2023-08-21T04:37:42;25.90;99.90
46356;DHT22;32066;49.474;11.106;2023-08-21T04:40:12;25.90;99.90
46356;DHT22;32066;49.474;11.106;2023-08-21T04:42:43;26.00;99.90
46356;DHT22;32066;49.474;11.106;2023-08-21T04:45:15;26.00;99.90
46356;DHT22;32066;49.474;11.106;2023-08-21T04:47:43;25.90;99.90
46356;DHT22;32066;49.474;11.106;2023-08-21T04:50:12;25.90;99.90
46356;DHT22;32066;49.474;11.106;2023-08-21T04:52:41;26.00;99.90
46356;DHT22;32066;49.474;11.106;2023-08-21T04:55:10;25.90;99.90
46356;DHT22;32066;49.474;11.106;2023-08-21T04:57:39;25.90;99.90
46356;DHT22;32066;49.474;11.106;2023-08-21T05:00:11;25.90;99.90
46356;DHT22;32066;49.474;11.106;2023-08-21T05:02:44;25.90;99.90
46356;DHT22;32066;49.474;11.106;2023-08-21T05:05:13;25.90;99.90
46356;DHT22;32066;49.474;11.106;2023-08-21T05:07:42;26.00;99.90
46356;DHT22;32066;49.474;11.106;2023-08-21T05:10:11;26.00;99.90
46356;DHT22;32066;49.474;11.106;2023-08-21T05:12:42;26.10;99.90
46356;DHT22;32066;49.474;11.106;2023-08-21T05:15:11;26.10;99.90
46356;DHT22;32066;49.474;11.106;2023-08-21T05:17:40;26.10;99.90
46356;DHT22;32066;49.474;11.106;2023-08-21T05:20:11;26.10;99.90
46356;DHT22;32066;49.474;11.106;2023-08-21T05:22:41;26.10;99.90
46356;DHT22;32066;49.474;11.106;2023-08-21T05:25:10;26.20;99.90
46356;DHT22;32066;49.474;11.106;2023-08-21T05:27:39;26.20;99.90
46356;DHT22;32066;49.474;11.106;2023-08-21T05:30:09;26.20;99.90
46356;DHT22;32066;49.474;11.106;2023-08-21T05:32:39;26.10;99.90
46356;DHT22;32066;49.474;11.106;2023-08-21T05:35:10;26.20;99.90
46356;DHT22;32066;49.474;11.106;2023-08-21T05:37:40;26.20;99.90
46356;DHT22;32066;49.474;11.106;2023-08-21T05:40:10;26.20;99.90
46356;DHT22;32066;49.474;11.106;2023-08-21T05:42:39;26.20;99.90
46356;DHT22;32066;49.474;11.106;2023-08-21T05:45:08;26.30;99.90
46356;DHT22;32066;49.474;11.106;2023-08-21T05:47:37;26.30;99.90
46356;DHT22;32066;49.474;11.106;2023-08-21T05:50:06;26.20;99.90
46356;DHT22;32066;49.474;11.106;2023-08-21T05:52:38;26.20;99.80
46356;DHT22;32066;49.474;11.106;2023-08-21T05:55:08;26.20;99.90
46356;DHT22;32066;49.474;11.106;2023-08-21T05:57:37;26.30;99.90
46356;DHT22;32066;49.474;11.106;2023-08-21T06:00:07;26.30;99.80
46356;DHT22;32066;49.474;11.106;2023-08-21T06:02:42;26.30;99.80
46356;DHT22;32066;49.474;11.106;2023-08-21T06:05:22;26.40;99.80
46356;DHT22;32066;49.474;11.106;2023-08-21T06:07:55;26.40;99.80
46356;DHT22;32066;49.474;11.106;2023-08-21T06:10:23;26.50;99.80
46356;DHT22;32066;49.474;11.106;2023-08-21T06:12:52;26.50;99.60
46356;DHT22;32066;49.474;11.106;2023-08-21T06:15:21;26.50;99.30
46356;DHT22;32066;49.474;11.106;2023-08-21T06:17:50;26.60;99.30
46356;DHT22;32066;49.474;11.106;2023-08-21T06:20:18;26.60;99.10
46356;DHT22;32066;49.474;11.106;2023-08-21T06:22:47;26.60;99.10
46356;DHT22;32066;49.474;11.106;2023-08-21T06:25:18;26.60;99.20
46356;DHT22;32066;49.474;11.106;2023-08-21T06:27:47;26.60;99.10
46356;DHT22;32066;49.474;11.106;2023-08-21T06:30:16;26.50;99.10
46356;DHT22;32066;49.474;11.106;2023-08-21T06:32:45;26.60;99.10
46356;DHT22;32066;49.474;11.106;2023-08-21T06:35:16;26.60;99.10
46356;DHT22;32066;49.474;11.106;2023-08-21T06:37:44;26.60;99.20
46356;DHT22;32066;49.474;11.106;2023-08-21T06:40:14;26.60;99.50
46356;DHT22;32066;49.474;11.106;2023-08-21T06:42:45;26.60;99.40
46356;DHT22;32066;49.474;11.106;2023-08-21T06:45:17;26.60;99.30
46356;DHT22;32066;49.474;11.106;2023-08-21T06:47:48;26.60;99.30
46356;DHT22;32066;49.474;11.106;2023-08-21T06:50:17;26.70;99.20
46356;DHT22;32066;49.474;11.106;2023-08-21T06:52:46;26.70;99.10
46356;DHT22;32066;49.474;11.106;2023-08-21T06:55:15;26.80;99.10
46356;DHT22;32066;49.474;11.106;2023-08-21T06:57:46;26.70;99.00
46356;DHT22;32066;49.474;11.106;2023-08-21T07:00:15;26.70;99.20
46356;DHT22;32066;49.474;11.106;2023-08-21T07:02:44;26.80;99.10
46356;DHT22;32066;49.474;11.106;2023-08-21T07:05:12;26.70;99.20
46356;DHT22;32066;49.474;11.106;2023-08-21T07:07:42;26.80;99.10
46356;DHT22;32066;49.474;11.106;2023-08-21T07:10:10;26.90;99.00
46356;DHT22;32066;49.474;11.106;2023-08-21T07:12:40;27.00;98.90
46356;DHT22;32066;49.474;11.106;2023-08-21T07:15:11;26.90;99.10
46356;DHT22;32066;49.474;11.106;2023-08-21T07:17:41;26.90;99.10
46356;DHT22;32066;49.474;11.106;2023-08-21T07:20:11;27.10;99.30
46356;DHT22;32066;49.474;11.106;2023-08-21T07:22:40;27.10;99.00
46356;DHT22;32066;49.474;11.106;2023-08-21T07:25:08;27.20;98.80
46356;DHT22;32066;49.474;11.106;2023-08-21T07:27:37;27.20;98.80
46356;DHT22;32066;49.474;11.106;2023-08-21T07:30:07;27.20;98.70
46356;DHT22;32066;49.474;11.106;2023-08-21T07:32:39;27.20;98.70
46356;DHT22;32066;49.474;11.106;2023-08-21T07:35:08;27.10;98.80
46356;DHT22;32066;49.474;11.106;2023-08-21T07:37:36;26.90;99.30
46356;DHT22;32066;49.474;11.106;2023-08-21T07:40:08;26.90;99.40
46356;DHT22;32066;49.474;11.106;2023-08-21T07:42:36;27.00;99.50
46356;DHT22;32066;49.474;11.106;2023-08-21T07:45:06;27.00;99.10
46356;DHT22;32066;49.474;11.106;2023-08-21T07:47:38;27.00;99.50
46356;DHT22;32066;49.474;11.106;2023-08-21T07:50:08;26.90;99.60
46356;DHT22;32066;49.474;11.106;2023-08-21T07:52:37;26.90;99.50
46356;DHT22;32066;49.474;11.106;2023-08-21T07:55:06;27.00;99.50
46356;DHT22;32066;49.474;11.106;2023-08-21T07:57:35;27.00;99.30
46356;DHT22;32066;49.474;11.106;2023-08-21T08:00:05;27.00;99.40
46356;DHT22;32066;49.474;11.106;2023-08-21T08:02:41;27.10;99.40
46356;DHT22;32066;49.474;11.106;2023-08-21T08:05:10;27.20;99.20
46356;DHT22;32066;49.474;11.106;2023-08-21T08:07:39;27.40;99.00
46356;DHT22;32066;49.474;11.106;2023-08-21T08:10:07;27.20;98.70
46356;DHT22;32066;49.474;11.106;2023-08-21T08:12:36;27.20;98.70
46356;DHT22;32066;49.474;11.106;2023-08-21T08:15:06;27.10;99.00
46356;DHT22;32066;49.474;11.106;2023-08-21T08:17:34;27.10;99.40
46356;DHT22;32066;49.474;11.106;2023-08-21T08:20:07;27.00;99.90
46356;DHT22;32066;49.474;11.106;2023-08-21T08:22:35;27.10;99.70
46356;DHT22;32066;49.474;11.106;2023-08-21T08:25:05;27.20;99.20
46356;DHT22;32066;49.474;11.106;2023-08-21T08:27:34;27.40;98.60
46356;DHT22;32066;49.474;11.106;2023-08-21T08:30:03;27.50;98.50
46356;DHT22;32066;49.474;11.106;2023-08-21T08:32:32;27.60;98.20
46356;DHT22;32066;49.474;11.106;2023-08-21T08:35:01;27.80;98.30
46356;DHT22;32066;49.474;11.106;2023-08-21T08:37:32;27.80;98.10
46356;DHT22;32066;49.474;11.106;2023-08-21T08:40:01;27.70;98.40
46356;DHT22;32066;49.474;11.106;2023-08-21T08:42:30;27.70;98.40
46356;DHT22;32066;49.474;11.106;2023-08-21T08:45:02;27.80;98.20
46356;DHT22;32066;49.474;11.106;2023-08-21T08:47:33;27.90;97.90
46356;DHT22;32066;49.474;11.106;2023-08-21T08:50:02;28.00;98.00
46356;DHT22;32066;49.474;11.106;2023-08-21T08:52:37;28.00;98.30
46356;DHT22;32066;49.474;11.106;2023-08-21T08:55:06;28.10;98.20
46356;DHT22;32066;49.474;11.106;2023-08-21T08:57:36;28.30;97.90
46356;DHT22;32066;49.474;11.106;2023-08-21T09:00:07;28.40;97.50
46356;DHT22;32066;49.474;11.106;2023-08-21T09:02:36;28.50;97.50
46356;DHT22;32066;49.474;11.106;2023-08-21T09:05:05;28.30;97.60
46356;DHT22;32066;49.474;11.106;2023-08-21T09:07:36;28.30;97.90
46356;DHT22;32066;49.474;11.106;2023-08-21T09:10:13;28.20;97.60
46356;DHT22;32066;49.474;11.106;2023-08-21T09:12:45;28.30;98.00
46356;DHT22;32066;49.474;11.106;2023-08-21T09:15:14;28.40;97.90
46356;DHT22;32066;49.474;11.106;2023-08-21T09:17:43;28.60;97.10
46356;DHT22;32066;49.474;11.106;2023-08-21T09:20:12;28.60;97.10
46356;DHT22;32066;49.474;11.106;2023-08-21T09:22:53;28.50;97.00
46356;DHT22;32066;49.474;11.106;2023-08-21T09:25:23;28.50;97.00
46356;DHT22;32066;49.474;11.106;2023-08-21T09:27:52;28.50;96.80
46356;DHT22;32066;49.474;11.106;2023-08-21T09:30:21;28.60;96.60
46356;DHT22;32066;49.474;11.106;2023-08-21T09:32:54;28.60;96.50
46356;DHT22;32066;49.474;11.106;2023-08-21T09:35:24;28.80;96.20
46356;DHT22;32066;49.474;11.106;2023-08-21T09:37:55;29.00;96.00
46356;DHT22;32066;49.474;11.106;2023-08-21T09:40:23;29.10;95.80
46356;DHT22;32066;49.474;11.106;2023-08-21T09:42:52;29.40;95.10
46356;DHT22;32066;49.474;11.106;2023-08-21T09:45:22;29.50;94.80
46356;DHT22;32066;49.474;11.106;2023-08-21T09:47:51;29.40;94.50
46356;DHT22;32066;49.474;11.106;2023-08-21T09:50:21;29.30;94.30
46356;DHT22;32066;49.474;11.106;2023-08-21T09:52:51;29.40;94.20
46356;DHT22;32066;49.474;11.106;2023-08-21T09:55:24;29.50;94.10
46356;DHT22;32066;49.474;11.106;2023-08-21T09:57:57;29.70;94.10
46356;DHT22;32066;49.474;11.106;2023-08-21T10:00:29;29.60;93.90
46356;DHT22;32066;49.474;11.106;2023-08-21T10:03:01;29.70;93.90
46356;DHT22;32066;49.474;11.106;2023-08-21T10:05:31;29.70;93.60
46356;DHT22;32066;49.474;11.106;2023-08-21T10:08:01;29.70;93.80
46356;DHT22;32066;49.474;11.106;2023-08-21T10:10:35;29.80;94.00
46356;DHT22;32066;49.474;11.106;2023-08-21T10:13:05;29.90;93.50
46356;DHT22;32066;49.474;11.106;2023-08-21T10:15:37;30.00;92.50
46356;DHT22;32066;49.474;11.106;2023-08-21T10:18:19;30.00;93.00
46356;DHT22;32066;49.474;11.106;2023-08-21T10:20:49;30.20;92.60
46356;DHT22;32066;49.474;11.106;2023-08-21T10:23:26;30.40;92.60
46356;DHT22;32066;49.474;11.106;2023-08-21T10:25:58;30.50;92.20
46356;DHT22;32066;49.474;11.106;2023-08-21T10:28:48;30.50;92.40
46356;DHT22;32066;49.474;11.106;2023-08-21T10:31:27;30.50;92.30
46356;DHT22;32066;49.474;11.106;2023-08-21T10:33:56;30.40;92.30
46356;DHT22;32066;49.474;11.106;2023-08-21T10:37:04;30.20;92.60
46356;DHT22;32066;49.474;11.106;2023-08-21T10:39:36;30.20;92.10
46356;DHT22;32066;49.474;11.106;2023-08-21T10:42:11;30.50;91.60
46356;DHT22;32066;49.474;11.106;2023-08-21T10:44:50;30.60;91.30
46356;DHT22;32066;49.474;11.106;2023-08-21T10:47:31;30.60;91.70
46356;DHT22;32066;49.474;11.106;2023-08-21T10:50:03;30.80;91.70
46356;DHT22;32066;49.474;11.106;2023-08-21T10:52:35;30.90;91.30
46356;DHT22;32066;49.474;11.106;2023-08-21T10:55:06;31.10;91.00
46356;DHT22;32066;49.474;11.106;2023-08-21T10:57:38;31.20;90.00
46356;DHT22;32066;49.474;11.106;2023-08-21T11:00:08;31.40;89.60
46356;DHT22;32066;49.474;11.106;2023-08-21T11:05:08;31.20;84.80
46356;DHT22;32066;49.474;11.106;2023-08-21T11:07:37;31.00;85.00
46356;DHT22;32066;49.474;11.106;2023-08-21T11:10:08;31.00;85.60
46356;DHT22;32066;49.474;11.106;2023-08-21T11:12:48;31.20;85.60
46356;DHT22;32066;49.474;11.106;2023-08-21T11:15:17;31.20;85.40
46356;DHT22;32066;49.474;11.106;2023-08-21T11:17:53;31.30;85.20
46356;DHT22;32066;49.474;11.106;2023-08-21T11:20:22;31.30;84.50
46356;DHT22;32066;49.474;11.106;2023-08-21T11:22:57;31.20;83.70
46356;DHT22;32066;49.474;11.106;2023-08-21T11:25:28;31.30;84.10
46356;DHT22;32066;49.474;11.106;2023-08-21T11:27:59;31.40;84.60
46356;DHT22;32066;49.474;11.106;2023-08-21T11:30:28;31.60;84.30
46356;DHT22;32066;49.474;11.106;2023-08-21T11:33:05;31.80;84.00
46356;DHT22;32066;49.474;11.106;2023-08-21T11:35:34;31.80;82.90
46356;DHT22;32066;49.474;11.106;2023-08-21T11:38:03;31.90;82.70
46356;DHT22;32066;49.474;11.106;2023-08-21T11:40:34;32.10;82.30
46356;DHT22;32066;49.474;11.106;2023-08-21T11:43:06;32.30;81.90
46356;DHT22;32066;49.474;11.106;2023-08-21T11:45:35;32.40;81.00
46356;DHT22;32066;49.474;11.106;2023-08-21T11:48:04;32.30;80.80
46356;DHT22;32066;49.474;11.106;2023-08-21T11:50:32;32.10;79.20
46356;DHT22;32066;49.474;11.106;2023-08-21T11:53:03;32.10;80.40
46356;DHT22;32066;49.474;11.106;2023-08-21T11:55:32;32.10;79.40
46356;DHT22;32066;49.474;11.106;2023-08-21T11:58:01;32.10;79.80
46356;DHT22;32066;49.474;11.106;2023-08-21T12:00:33;32.00;79.10
46356;DHT22;32066;49.474;11.106;2023-08-21T12:03:02;32.10;79.70
46356;DHT22;32066;49.474;11.106;2023-08-21T12:05:34;32.20;79.10
46356;DHT22;32066;49.474;11.106;2023-08-21T12:08:03;32.50;78.30
46356;DHT22;32066;49.474;11.106;2023-08-21T12:10:32;32.60;77.30
46356;DHT22;32066;49.474;11.106;2023-08-21T12:13:01;32.60;77.90
46356;DHT22;32066;49.474;11.106;2023-08-21T12:15:32;32.60;77.90
46356;DHT22;32066;49.474;11.106;2023-08-21T12:18:00;32.30;77.60
46356;DHT22;32066;49.474;11.106;2023-08-21T12:20:29;32.30;77.70
46356;DHT22;32066;49.474;11.106;2023-08-21T12:22:58;32.50;77.80
46356;DHT22;32066;49.474;11.106;2023-08-21T12:25:27;32.80;78.00
46356;DHT22;32066;49.474;11.106;2023-08-21T12:27:57;32.80;74.90
46356;DHT22;32066;49.474;11.106;2023-08-21T12:30:26;32.80;75.70
46356;DHT22;32066;49.474;11.106;2023-08-21T12:32:57;33.00;76.60
46356;DHT22;32066;49.474;11.106;2023-08-21T12:35:26;33.00;77.00
46356;DHT22;32066;49.474;11.106;2023-08-21T12:37:57;33.00;76.70
46356;DHT22;32066;49.474;11.106;2023-08-21T12:40:31;32.80;77.30
46356;DHT22;32066;49.474;11.106;2023-08-21T12:43:00;32.80;77.80
46356;DHT22;32066;49.474;11.106;2023-08-21T12:45:29;33.00;77.10
46356;DHT22;32066;49.474;11.106;2023-08-21T12:48:01;32.80;77.20
46356;DHT22;32066;49.474;11.106;2023-08-21T12:50:29;32.60;78.30
46356;DHT22;32066;49.474;11.106;2023-08-21T12:52:59;32.80;78.60
46356;DHT22;32066;49.474;11.106;2023-08-21T12:55:28;33.20;78.90
46356;DHT22;32066;49.474;11.106;2023-08-21T12:57:57;33.30;77.50
46356;DHT22;32066;49.474;11.106;2023-08-21T13:00:26;33.40;77.40
46356;DHT22;32066;49.474;11.106;2023-08-21T13:02:54;33.40;76.60
46356;DHT22;32066;49.474;11.106;2023-08-21T13:05:25;33.50;74.90
46356;DHT22;32066;49.474;11.106;2023-08-21T13:07:54;33.60;73.40
46356;DHT22;32066;49.474;11.106;2023-08-21T13:10:23;33.50;74.10
46356;DHT22;32066;49.474;11.106;2023-08-21T13:12:52;33.40;73.20
46356;DHT22;32066;49.474;11.106;2023-08-21T13:15:20;33.40;73.50
46356;DHT22;32066;49.474;11.106;2023-08-21T13:17:49;33.60;74.00
46356;DHT22;32066;49.474;11.106;2023-08-21T13:20:17;33.80;72.70
46356;DHT22;32066;49.474;11.106;2023-08-21T13:22:50;34.00;72.60
46356;DHT22;32066;49.474;11.106;2023-08-21T13:25:20;33.80;70.90
46356;DHT22;32066;49.474;11.106;2023-08-21T13:27:50;33.60;71.40
46356;DHT22;32066;49.474;11.106;2023-08-21T13:30:19;33.70;72.30
46356;DHT22;32066;49.474;11.106;2023-08-21T13:32:50;33.80;73.60
46356;DHT22;32066;49.474;11.106;2023-08-21T13:35:21;34.00;73.00
46356;DHT22;32066;49.474;11.106;2023-08-21T13:37:53;34.10;72.80
46356;DHT22;32066;49.474;11.106;2023-08-21T13:40:21;34.20;72.40
46356;DHT22;32066;49.474;11.106;2023-08-21T13:42:50;34.40;71.30
46356;DHT22;32066;49.474;11.106;2023-08-21T13:45:20;34.40;71.10
46356;DHT22;32066;49.474;11.106;2023-08-21T13:47:49;34.50;70.40
46356;DHT22;32066;49.474;11.106;2023-08-21T13:50:18;34.40;70.80
46356;DHT22;32066;49.474;11.106;2023-08-21T13:52:48;34.50;71.40
46356;DHT22;32066;49.474;11.106;2023-08-21T13:55:19;34.70;71.90
46356;DHT22;32066;49.474;11.106;2023-08-21T13:57:48;34.90;69.90
46356;DHT22;32066;49.474;11.106;2023-08-21T14:00:17;34.90;69.50
46356;DHT22;32066;49.474;11.106;2023-08-21T14:02:46;35.00;69.40
46356;DHT22;32066;49.474;11.106;2023-08-21T14:05:14;35.00;68.20
46356;DHT22;32066;49.474;11.106;2023-08-21T14:07:43;34.80;68.10
46356;DHT22;32066;49.474;11.106;2023-08-21T14:10:12;34.90;68.90
46356;DHT22;32066;49.474;11.106;2023-08-21T14:12:44;34.80;68.70
46356;DHT22;32066;49.474;11.106;2023-08-21T14:15:12;34.90;68.90
46356;DHT22;32066;49.474;11.106;2023-08-21T14:17:41;34.90;68.00
46356;DHT22;32066;49.474;11.106;2023-08-21T14:20:10;34.80;68.40
46356;DHT22;32066;49.474;11.106;2023-08-21T14:22:39;34.90;67.70
46356;DHT22;32066;49.474;11.106;2023-08-21T14:25:08;34.90;66.70
46356;DHT22;32066;49.474;11.106;2023-08-21T14:27:37;34.80;67.10
46356;DHT22;32066;49.474;11.106;2023-08-21T14:30:09;34.90;67.50
46356;DHT22;32066;49.474;11.106;2023-08-21T14:32:38;35.00;67.90
46356;DHT22;32066;49.474;11.106;2023-08-21T14:35:08;35.10;67.40
46356;DHT22;32066;49.474;11.106;2023-08-21T14:37:37;35.30;67.00
46356;DHT22;32066;49.474;11.106;2023-08-21T14:40:08;35.30;67.00
46356;DHT22;32066;49.474;11.106;2023-08-21T14:42:37;35.30;66.80
46356;DHT22;32066;49.474;11.106;2023-08-21T14:45:09;35.10;65.90
46356;DHT22;32066;49.474;11.106;2023-08-21T14:47:38;35.00;65.70
46356;DHT22;32066;49.474;11.106;2023-08-21T14:50:08;34.90;67.10
46356;DHT22;32066;49.474;11.106;2023-08-21T14:52:37;35.00;66.90
46356;DHT22;32066;49.474;11.106;2023-08-21T14:55:06;35.20;67.10
46356;DHT22;32066;49.474;11.106;2023-08-21T14:57:35;35.10;65.30
46356;DHT22;32066;49.474;11.106;2023-08-21T15:00:05;35.20;66.00
46356;DHT22;32066;49.474;11.106;2023-08-21T15:02:37;35.30;66.70
46356;DHT22;32066;49.474;11.106;2023-08-21T15:05:06;35.30;65.80
46356;DHT22;32066;49.474;11.106;2023-08-21T15:07:36;35.40;65.50
46356;DHT22;32066;49.474;11.106;2023-08-21T15:10:05;35.40;65.40
46356;DHT22;32066;49.474;11.106;2023-08-21T15:12:34;35.40;65.50
46356;DHT22;32066;49.474;11.106;2023-08-21T15:15:04;35.30;65.90
46356;DHT22;32066;49.474;11.106;2023-08-21T15:17:32;35.30;65.50
46356;DHT22;32066;49.474;11.106;2023-08-21T15:20:05;35.30;65.00
46356;DHT22;32066;49.474;11.106;2023-08-21T15:22:34;35.40;65.10
46356;DHT22;32066;49.474;11.106;2023-08-21T15:25:03;35.50;65.60
46356;DHT22;32066;49.474;11.106;2023-08-21T15:27:32;35.50;65.60
46356;DHT22;32066;49.474;11.106;2023-08-21T15:30:01;35.50;64.60
46356;DHT22;32066;49.474;11.106;2023-08-21T15:32:29;35.30;64.80
46356;DHT22;32066;49.474;11.106;2023-08-21T15:34:58;35.20;65.10